sensor_id;sensor_type;location;lat;lon;timestamp;P1;durP1;ratioP1;P2;durP2;ratioP2
45236;SDS011;30973;51.442;3.580;2023-07-13T00:02:11;12.63;;;3.47;;
45236;SDS011;30973;51.442;3.580;2023-07-13T00:04:38;11.45;;;3.88;;
45236;SDS011;30973;51.442;3.580;2023-07-13T00:07:04;15.18;;;3.55;;
45236;SDS011;30973;51.442;3.580;2023-07-13T00:09:31;12.98;;;3.40;;
45236;SDS011;30973;51.442;3.580;2023-07-13T00:11:58;15.07;;;4.30;;
45236;SDS011;30973;51.442;3.580;2023-07-13T00:14:25;11.38;;;3.00;;
45236;SDS011;30973;51.442;3.580;2023-07-13T00:16:52;13.27;;;3.30;;
45236;SDS011;30973;51.442;3.580;2023-07-13T00:19:19;13.43;;;3.63;;
45236;SDS011;30973;51.442;3.580;2023-07-13T00:21:46;15.35;;;3.80;;
45236;SDS011;30973;51.442;3.580;2023-07-13T00:24:13;14.02;;;3.33;;
45236;SDS011;30973;51.442;3.580;2023-07-13T00:26:41;14.27;;;3.63;;
45236;SDS011;30973;51.442;3.580;2023-07-13T00:29:12;13.20;;;3.65;;
45236;SDS011;30973;51.442;3.580;2023-07-13T00:31:39;20.95;;;4.38;;
45236;SDS011;30973;51.442;3.580;2023-07-13T00:34:05;16.10;;;3.70;;
45236;SDS011;30973;51.442;3.580;2023-07-13T00:36:32;14.23;;;4.30;;
45236;SDS011;30973;51.442;3.580;2023-07-13T00:38:59;16.65;;;3.67;;
45236;SDS011;30973;51.442;3.580;2023-07-13T00:41:26;16.38;;;3.28;;
45236;SDS011;30973;51.442;3.580;2023-07-13T00:43:53;18.92;;;3.83;;
45236;SDS011;30973;51.442;3.580;2023-07-13T00:46:30;19.55;;;4.20;;
45236;SDS011;30973;51.442;3.580;2023-07-13T00:48:59;12.88;;;3.55;;
45236;SDS011;30973;51.442;3.580;2023-07-13T00:51:34;12.05;;;4.13;;
45236;SDS011;30973;51.442;3.580;2023-07-13T00:54:04;15.07;;;3.72;;
45236;SDS011;30973;51.442;3.580;2023-07-13T00:56:31;14.07;;;3.63;;
45236;SDS011;30973;51.442;3.580;2023-07-13T00:58:59;12.35;;;3.53;;
45236;SDS011;30973;51.442;3.580;2023-07-13T01:01:26;11.50;;;3.78;;
45236;SDS011;30973;51.442;3.580;2023-07-13T01:03:53;17.77;;;4.03;;
45236;SDS011;30973;51.442;3.580;2023-07-13T01:06:20;15.52;;;4.00;;
45236;SDS011;30973;51.442;3.580;2023-07-13T01:08:47;15.27;;;4.07;;
45236;SDS011;30973;51.442;3.580;2023-07-13T01:11:17;19.10;;;3.80;;
45236;SDS011;30973;51.442;3.580;2023-07-13T01:13:44;13.20;;;3.83;;
45236;SDS011;30973;51.442;3.580;2023-07-13T01:16:15;13.38;;;4.10;;
45236;SDS011;30973;51.442;3.580;2023-07-13T01:18:44;15.05;;;4.00;;
45236;SDS011;30973;51.442;3.580;2023-07-13T01:21:10;13.25;;;3.63;;
45236;SDS011;30973;51.442;3.580;2023-07-13T01:23:39;13.20;;;4.15;;
45236;SDS011;30973;51.442;3.580;2023-07-13T01:26:05;16.75;;;4.20;;
45236;SDS011;30973;51.442;3.580;2023-07-13T01:28:32;20.00;;;4.57;;
45236;SDS011;30973;51.442;3.580;2023-07-13T01:31:03;15.82;;;4.57;;
45236;SDS011;30973;51.442;3.580;2023-07-13T01:33:30;15.18;;;3.85;;
45236;SDS011;30973;51.442;3.580;2023-07-13T01:35:57;19.02;;;5.10;;
45236;SDS011;30973;51.442;3.580;2023-07-13T01:38:24;17.98;;;4.25;;
45236;SDS011;30973;51.442;3.580;2023-07-13T01:40:51;18.75;;;5.18;;
45236;SDS011;30973;51.442;3.580;2023-07-13T01:43:18;15.90;;;4.70;;
45236;SDS011;30973;51.442;3.580;2023-07-13T01:45:45;19.92;;;4.70;;
45236;SDS011;30973;51.442;3.580;2023-07-13T01:48:12;17.35;;;4.43;;
45236;SDS011;30973;51.442;3.580;2023-07-13T01:50:40;22.00;;;4.70;;
45236;SDS011;30973;51.442;3.580;2023-07-13T01:53:07;20.58;;;4.45;;
45236;SDS011;30973;51.442;3.580;2023-07-13T01:55:34;11.65;;;3.80;;
45236;SDS011;30973;51.442;3.580;2023-07-13T01:58:02;19.05;;;4.22;;
45236;SDS011;30973;51.442;3.580;2023-07-13T02:00:29;19.35;;;4.97;;
45236;SDS011;30973;51.442;3.580;2023-07-13T02:02:55;16.48;;;4.75;;
45236;SDS011;30973;51.442;3.580;2023-07-13T02:05:23;20.70;;;4.47;;
45236;SDS011;30973;51.442;3.580;2023-07-13T02:07:50;18.13;;;4.72;;
45236;SDS011;30973;51.442;3.580;2023-07-13T02:10:17;17.52;;;4.57;;
45236;SDS011;30973;51.442;3.580;2023-07-13T02:12:44;18.70;;;5.15;;
45236;SDS011;30973;51.442;3.580;2023-07-13T02:15:10;18.73;;;4.55;;
45236;SDS011;30973;51.442;3.580;2023-07-13T02:17:37;18.55;;;4.70;;
45236;SDS011;30973;51.442;3.580;2023-07-13T02:20:04;16.38;;;5.18;;
45236;SDS011;30973;51.442;3.580;2023-07-13T02:22:31;23.40;;;5.82;;
45236;SDS011;30973;51.442;3.580;2023-07-13T02:24:58;19.80;;;4.97;;
45236;SDS011;30973;51.442;3.580;2023-07-13T02:27:25;17.83;;;4.97;;
45236;SDS011;30973;51.442;3.580;2023-07-13T02:29:52;24.25;;;5.53;;
45236;SDS011;30973;51.442;3.580;2023-07-13T02:32:20;16.25;;;4.38;;
45236;SDS011;30973;51.442;3.580;2023-07-13T02:34:47;20.73;;;5.70;;
45236;SDS011;30973;51.442;3.580;2023-07-13T02:37:13;15.85;;;4.65;;
45236;SDS011;30973;51.442;3.580;2023-07-13T02:39:40;14.52;;;4.95;;
45236;SDS011;30973;51.442;3.580;2023-07-13T02:42:07;17.83;;;5.00;;
45236;SDS011;30973;51.442;3.580;2023-07-13T02:44:34;18.77;;;5.07;;
45236;SDS011;30973;51.442;3.580;2023-07-13T02:47:01;18.48;;;4.60;;
45236;SDS011;30973;51.442;3.580;2023-07-13T02:49:28;18.70;;;5.30;;
45236;SDS011;30973;51.442;3.580;2023-07-13T02:51:55;16.77;;;4.75;;
45236;SDS011;30973;51.442;3.580;2023-07-13T02:54:22;15.93;;;4.35;;
45236;SDS011;30973;51.442;3.580;2023-07-13T02:56:48;20.50;;;5.05;;
45236;SDS011;30973;51.442;3.580;2023-07-13T02:59:15;16.17;;;4.70;;
45236;SDS011;30973;51.442;3.580;2023-07-13T03:01:42;16.67;;;4.38;;
45236;SDS011;30973;51.442;3.580;2023-07-13T03:04:10;15.07;;;5.20;;
45236;SDS011;30973;51.442;3.580;2023-07-13T03:06:37;23.58;;;6.32;;
45236;SDS011;30973;51.442;3.580;2023-07-13T03:09:04;17.73;;;5.00;;
45236;SDS011;30973;51.442;3.580;2023-07-13T03:11:33;17.95;;;4.57;;
45236;SDS011;30973;51.442;3.580;2023-07-13T03:14:14;17.85;;;5.03;;
45236;SDS011;30973;51.442;3.580;2023-07-13T03:16:42;18.00;;;5.10;;
45236;SDS011;30973;51.442;3.580;2023-07-13T03:19:09;21.90;;;5.30;;
45236;SDS011;30973;51.442;3.580;2023-07-13T03:21:36;18.92;;;5.47;;
45236;SDS011;30973;51.442;3.580;2023-07-13T03:24:03;16.20;;;4.70;;
45236;SDS011;30973;51.442;3.580;2023-07-13T03:26:29;20.25;;;5.47;;
45236;SDS011;30973;51.442;3.580;2023-07-13T03:28:56;19.08;;;5.28;;
45236;SDS011;30973;51.442;3.580;2023-07-13T03:31:27;18.63;;;5.75;;
45236;SDS011;30973;51.442;3.580;2023-07-13T03:33:56;21.00;;;5.15;;
45236;SDS011;30973;51.442;3.580;2023-07-13T03:36:24;17.25;;;5.38;;
45236;SDS011;30973;51.442;3.580;2023-07-13T03:38:58;21.48;;;6.03;;
45236;SDS011;30973;51.442;3.580;2023-07-13T03:41:33;16.85;;;5.43;;
45236;SDS011;30973;51.442;3.580;2023-07-13T03:44:00;18.48;;;4.75;;
45236;SDS011;30973;51.442;3.580;2023-07-13T03:46:27;17.65;;;5.57;;
45236;SDS011;30973;51.442;3.580;2023-07-13T03:48:55;18.23;;;5.57;;
45236;SDS011;30973;51.442;3.580;2023-07-13T03:51:22;18.45;;;5.40;;
45236;SDS011;30973;51.442;3.580;2023-07-13T03:53:48;19.23;;;5.30;;
45236;SDS011;30973;51.442;3.580;2023-07-13T03:56:17;19.90;;;6.85;;
45236;SDS011;30973;51.442;3.580;2023-07-13T03:58:48;19.70;;;5.13;;
45236;SDS011;30973;51.442;3.580;2023-07-13T04:01:20;24.10;;;5.15;;
45236;SDS011;30973;51.442;3.580;2023-07-13T04:03:48;20.63;;;5.65;;
45236;SDS011;30973;51.442;3.580;2023-07-13T04:06:17;21.40;;;5.20;;
45236;SDS011;30973;51.442;3.580;2023-07-13T04:08:54;14.63;;;4.47;;
45236;SDS011;30973;51.442;3.580;2023-07-13T04:11:22;17.50;;;5.32;;
45236;SDS011;30973;51.442;3.580;2023-07-13T04:13:49;20.02;;;5.47;;
45236;SDS011;30973;51.442;3.580;2023-07-13T04:16:17;16.23;;;4.88;;
45236;SDS011;30973;51.442;3.580;2023-07-13T04:18:44;15.63;;;5.20;;
45236;SDS011;30973;51.442;3.580;2023-07-13T04:21:12;17.13;;;5.20;;
45236;SDS011;30973;51.442;3.580;2023-07-13T04:23:39;19.98;;;5.57;;
45236;SDS011;30973;51.442;3.580;2023-07-13T04:26:06;13.63;;;4.97;;
45236;SDS011;30973;51.442;3.580;2023-07-13T04:28:33;15.38;;;5.38;;
45236;SDS011;30973;51.442;3.580;2023-07-13T04:31:00;17.88;;;5.05;;
45236;SDS011;30973;51.442;3.580;2023-07-13T04:33:26;18.33;;;5.13;;
45236;SDS011;30973;51.442;3.580;2023-07-13T04:35:54;20.17;;;5.10;;
45236;SDS011;30973;51.442;3.580;2023-07-13T04:38:23;20.40;;;5.10;;
45236;SDS011;30973;51.442;3.580;2023-07-13T04:40:51;14.55;;;5.55;;
45236;SDS011;30973;51.442;3.580;2023-07-13T04:43:18;17.70;;;4.93;;
45236;SDS011;30973;51.442;3.580;2023-07-13T04:45:45;16.20;;;5.30;;
45236;SDS011;30973;51.442;3.580;2023-07-13T04:48:12;16.23;;;5.07;;
45236;SDS011;30973;51.442;3.580;2023-07-13T04:50:38;18.67;;;4.85;;
45236;SDS011;30973;51.442;3.580;2023-07-13T04:53:05;21.00;;;5.90;;
45236;SDS011;30973;51.442;3.580;2023-07-13T04:55:32;19.20;;;5.57;;
45236;SDS011;30973;51.442;3.580;2023-07-13T04:57:59;22.58;;;5.45;;
45236;SDS011;30973;51.442;3.580;2023-07-13T05:00:26;21.55;;;5.93;;
45236;SDS011;30973;51.442;3.580;2023-07-13T05:02:54;15.90;;;4.50;;
45236;SDS011;30973;51.442;3.580;2023-07-13T05:05:21;19.98;;;5.03;;
45236;SDS011;30973;51.442;3.580;2023-07-13T05:07:47;19.80;;;5.30;;
45236;SDS011;30973;51.442;3.580;2023-07-13T05:10:14;16.60;;;4.95;;
45236;SDS011;30973;51.442;3.580;2023-07-13T05:12:41;19.25;;;5.95;;
45236;SDS011;30973;51.442;3.580;2023-07-13T05:15:08;16.88;;;4.50;;
45236;SDS011;30973;51.442;3.580;2023-07-13T05:17:34;16.90;;;4.97;;
45236;SDS011;30973;51.442;3.580;2023-07-13T05:20:01;20.10;;;4.93;;
45236;SDS011;30973;51.442;3.580;2023-07-13T05:22:28;15.65;;;5.35;;
45236;SDS011;30973;51.442;3.580;2023-07-13T05:24:55;15.70;;;4.90;;
45236;SDS011;30973;51.442;3.580;2023-07-13T05:27:21;15.50;;;5.20;;
45236;SDS011;30973;51.442;3.580;2023-07-13T05:29:48;17.10;;;4.57;;
45236;SDS011;30973;51.442;3.580;2023-07-13T05:32:15;15.50;;;5.22;;
45236;SDS011;30973;51.442;3.580;2023-07-13T05:34:42;13.32;;;4.60;;
45236;SDS011;30973;51.442;3.580;2023-07-13T05:37:08;21.45;;;5.47;;
45236;SDS011;30973;51.442;3.580;2023-07-13T05:39:35;16.67;;;5.18;;
45236;SDS011;30973;51.442;3.580;2023-07-13T05:42:02;16.45;;;5.78;;
45236;SDS011;30973;51.442;3.580;2023-07-13T05:44:29;17.13;;;5.20;;
45236;SDS011;30973;51.442;3.580;2023-07-13T05:46:55;18.48;;;5.57;;
45236;SDS011;30973;51.442;3.580;2023-07-13T05:49:23;14.80;;;4.93;;
45236;SDS011;30973;51.442;3.580;2023-07-13T05:51:49;17.90;;;5.00;;
45236;SDS011;30973;51.442;3.580;2023-07-13T05:54:16;17.48;;;5.07;;
45236;SDS011;30973;51.442;3.580;2023-07-13T05:56:43;21.58;;;5.30;;
45236;SDS011;30973;51.442;3.580;2023-07-13T05:59:10;20.85;;;5.50;;
45236;SDS011;30973;51.442;3.580;2023-07-13T06:01:36;20.00;;;5.18;;
45236;SDS011;30973;51.442;3.580;2023-07-13T06:04:03;15.32;;;4.25;;
45236;SDS011;30973;51.442;3.580;2023-07-13T06:06:30;22.58;;;5.97;;
45236;SDS011;30973;51.442;3.580;2023-07-13T06:08:56;17.60;;;4.88;;
45236;SDS011;30973;51.442;3.580;2023-07-13T06:11:24;18.70;;;4.75;;
45236;SDS011;30973;51.442;3.580;2023-07-13T06:13:51;16.00;;;4.40;;
45236;SDS011;30973;51.442;3.580;2023-07-13T06:16:18;15.50;;;3.72;;
45236;SDS011;30973;51.442;3.580;2023-07-13T06:18:45;15.27;;;4.07;;
45236;SDS011;30973;51.442;3.580;2023-07-13T06:21:13;18.35;;;5.20;;
45236;SDS011;30973;51.442;3.580;2023-07-13T06:23:40;19.90;;;4.63;;
45236;SDS011;30973;51.442;3.580;2023-07-13T06:26:07;12.23;;;4.00;;
45236;SDS011;30973;51.442;3.580;2023-07-13T06:28:34;20.15;;;4.53;;
45236;SDS011;30973;51.442;3.580;2023-07-13T06:31:01;22.50;;;4.78;;
45236;SDS011;30973;51.442;3.580;2023-07-13T06:33:28;20.70;;;4.82;;
45236;SDS011;30973;51.442;3.580;2023-07-13T06:35:55;16.92;;;4.90;;
45236;SDS011;30973;51.442;3.580;2023-07-13T06:38:22;12.38;;;3.90;;
45236;SDS011;30973;51.442;3.580;2023-07-13T06:40:48;17.02;;;3.85;;
45236;SDS011;30973;51.442;3.580;2023-07-13T06:43:15;17.38;;;4.55;;
45236;SDS011;30973;51.442;3.580;2023-07-13T06:45:42;12.88;;;4.10;;
45236;SDS011;30973;51.442;3.580;2023-07-13T06:48:09;16.00;;;4.30;;
45236;SDS011;30973;51.442;3.580;2023-07-13T06:50:36;16.13;;;4.20;;
45236;SDS011;30973;51.442;3.580;2023-07-13T06:53:03;13.63;;;3.85;;
45236;SDS011;30973;51.442;3.580;2023-07-13T06:55:29;14.90;;;4.45;;
45236;SDS011;30973;51.442;3.580;2023-07-13T06:57:57;15.20;;;4.20;;
45236;SDS011;30973;51.442;3.580;2023-07-13T07:00:23;12.68;;;3.55;;
45236;SDS011;30973;51.442;3.580;2023-07-13T07:02:50;13.32;;;3.90;;
45236;SDS011;30973;51.442;3.580;2023-07-13T07:05:17;9.77;;;3.03;;
45236;SDS011;30973;51.442;3.580;2023-07-13T07:07:43;11.63;;;3.20;;
45236;SDS011;30973;51.442;3.580;2023-07-13T07:10:10;11.98;;;3.22;;
45236;SDS011;30973;51.442;3.580;2023-07-13T07:12:37;14.25;;;3.63;;
45236;SDS011;30973;51.442;3.580;2023-07-13T07:15:03;10.93;;;3.15;;
45236;SDS011;30973;51.442;3.580;2023-07-13T07:17:30;11.73;;;3.53;;
45236;SDS011;30973;51.442;3.580;2023-07-13T07:19:57;9.73;;;3.60;;
45236;SDS011;30973;51.442;3.580;2023-07-13T07:22:23;12.90;;;3.58;;
45236;SDS011;30973;51.442;3.580;2023-07-13T07:24:53;7.30;;;2.92;;
45236;SDS011;30973;51.442;3.580;2023-07-13T07:27:20;13.30;;;3.47;;
45236;SDS011;30973;51.442;3.580;2023-07-13T07:29:49;13.55;;;3.30;;
45236;SDS011;30973;51.442;3.580;2023-07-13T07:32:36;11.00;;;2.60;;
45236;SDS011;30973;51.442;3.580;2023-07-13T07:35:06;8.93;;;2.70;;
45236;SDS011;30973;51.442;3.580;2023-07-13T07:37:33;9.98;;;2.90;;
45236;SDS011;30973;51.442;3.580;2023-07-13T07:40:03;12.00;;;2.65;;
45236;SDS011;30973;51.442;3.580;2023-07-13T07:42:33;11.68;;;3.22;;
45236;SDS011;30973;51.442;3.580;2023-07-13T07:45:00;10.57;;;3.28;;
45236;SDS011;30973;51.442;3.580;2023-07-13T07:47:30;10.75;;;3.17;;
45236;SDS011;30973;51.442;3.580;2023-07-13T07:49:57;13.63;;;3.30;;
45236;SDS011;30973;51.442;3.580;2023-07-13T07:52:23;7.93;;;3.17;;
45236;SDS011;30973;51.442;3.580;2023-07-13T07:54:50;8.65;;;3.13;;
45236;SDS011;30973;51.442;3.580;2023-07-13T07:57:20;6.75;;;2.60;;
45236;SDS011;30973;51.442;3.580;2023-07-13T07:59:49;6.70;;;2.40;;
45236;SDS011;30973;51.442;3.580;2023-07-13T08:02:19;10.30;;;2.47;;
45236;SDS011;30973;51.442;3.580;2023-07-13T08:04:48;7.65;;;2.25;;
45236;SDS011;30973;51.442;3.580;2023-07-13T08:07:18;6.45;;;2.10;;
45236;SDS011;30973;51.442;3.580;2023-07-13T08:09:45;8.82;;;2.40;;
45236;SDS011;30973;51.442;3.580;2023-07-13T08:12:13;6.43;;;2.03;;
45236;SDS011;30973;51.442;3.580;2023-07-13T08:14:42;5.72;;;2.00;;
45236;SDS011;30973;51.442;3.580;2023-07-13T08:17:19;7.07;;;2.15;;
45236;SDS011;30973;51.442;3.580;2023-07-13T08:19:46;9.80;;;2.58;;
45236;SDS011;30973;51.442;3.580;2023-07-13T08:22:13;7.40;;;2.65;;
45236;SDS011;30973;51.442;3.580;2023-07-13T08:24:39;7.53;;;2.33;;
45236;SDS011;30973;51.442;3.580;2023-07-13T08:27:06;9.70;;;2.42;;
45236;SDS011;30973;51.442;3.580;2023-07-13T08:29:33;6.57;;;1.80;;
45236;SDS011;30973;51.442;3.580;2023-07-13T08:31:59;6.75;;;2.47;;
45236;SDS011;30973;51.442;3.580;2023-07-13T08:34:26;6.93;;;2.30;;
45236;SDS011;30973;51.442;3.580;2023-07-13T08:36:53;5.25;;;2.17;;
45236;SDS011;30973;51.442;3.580;2023-07-13T08:39:20;5.88;;;2.03;;
45236;SDS011;30973;51.442;3.580;2023-07-13T08:41:51;6.65;;;2.05;;
45236;SDS011;30973;51.442;3.580;2023-07-13T08:44:20;5.28;;;2.33;;
45236;SDS011;30973;51.442;3.580;2023-07-13T08:46:52;8.75;;;2.40;;
45236;SDS011;30973;51.442;3.580;2023-07-13T08:49:21;5.55;;;2.22;;
45236;SDS011;30973;51.442;3.580;2023-07-13T08:51:55;5.50;;;2.25;;
45236;SDS011;30973;51.442;3.580;2023-07-13T08:54:32;6.85;;;2.30;;
45236;SDS011;30973;51.442;3.580;2023-07-13T08:57:00;9.02;;;2.33;;
45236;SDS011;30973;51.442;3.580;2023-07-13T08:59:28;5.50;;;2.17;;
45236;SDS011;30973;51.442;3.580;2023-07-13T09:04:29;7.03;;;2.40;;
45236;SDS011;30973;51.442;3.580;2023-07-13T09:07:11;7.57;;;2.30;;
45236;SDS011;30973;51.442;3.580;2023-07-13T09:09:55;6.03;;;2.03;;
45236;SDS011;30973;51.442;3.580;2023-07-13T09:15:01;8.45;;;2.45;;
45236;SDS011;30973;51.442;3.580;2023-07-13T09:17:35;7.80;;;2.70;;
45236;SDS011;30973;51.442;3.580;2023-07-13T09:20:17;7.70;;;2.33;;
45236;SDS011;30973;51.442;3.580;2023-07-13T09:22:48;6.65;;;2.25;;
45236;SDS011;30973;51.442;3.580;2023-07-13T09:25:31;8.48;;;2.85;;
45236;SDS011;30973;51.442;3.580;2023-07-13T09:28:00;7.38;;;2.38;;
45236;SDS011;30973;51.442;3.580;2023-07-13T09:30:36;5.55;;;2.08;;
45236;SDS011;30973;51.442;3.580;2023-07-13T09:33:04;6.00;;;2.50;;
45236;SDS011;30973;51.442;3.580;2023-07-13T09:35:31;6.82;;;2.22;;
45236;SDS011;30973;51.442;3.580;2023-07-13T09:37:58;5.28;;;1.85;;
45236;SDS011;30973;51.442;3.580;2023-07-13T09:43:13;7.40;;;1.92;;
45236;SDS011;30973;51.442;3.580;2023-07-13T09:45:40;6.57;;;2.00;;
45236;SDS011;30973;51.442;3.580;2023-07-13T09:48:10;6.70;;;2.22;;
45236;SDS011;30973;51.442;3.580;2023-07-13T09:50:39;5.75;;;2.13;;
45236;SDS011;30973;51.442;3.580;2023-07-13T09:53:11;7.47;;;2.28;;
45236;SDS011;30973;51.442;3.580;2023-07-13T09:55:38;5.78;;;1.98;;
45236;SDS011;30973;51.442;3.580;2023-07-13T09:58:09;5.35;;;2.03;;
45236;SDS011;30973;51.442;3.580;2023-07-13T10:00:37;5.25;;;1.95;;
45236;SDS011;30973;51.442;3.580;2023-07-13T10:03:16;7.90;;;2.17;;
45236;SDS011;30973;51.442;3.580;2023-07-13T10:05:44;6.78;;;2.10;;
45236;SDS011;30973;51.442;3.580;2023-07-13T10:08:29;3.30;;;1.77;;
45236;SDS011;30973;51.442;3.580;2023-07-13T10:11:01;5.43;;;1.75;;
45236;SDS011;30973;51.442;3.580;2023-07-13T10:13:36;4.50;;;1.70;;
45236;SDS011;30973;51.442;3.580;2023-07-13T10:16:06;7.00;;;1.50;;
45236;SDS011;30973;51.442;3.580;2023-07-13T10:18:38;5.00;;;1.70;;
45236;SDS011;30973;51.442;3.580;2023-07-13T10:21:26;6.55;;;1.90;;
45236;SDS011;30973;51.442;3.580;2023-07-13T10:26:42;8.40;;;2.00;;
45236;SDS011;30973;51.442;3.580;2023-07-13T10:29:12;6.13;;;2.03;;
45236;SDS011;30973;51.442;3.580;2023-07-13T10:31:40;5.88;;;2.25;;
45236;SDS011;30973;51.442;3.580;2023-07-13T10:34:09;7.53;;;2.30;;
45236;SDS011;30973;51.442;3.580;2023-07-13T10:36:41;9.73;;;2.50;;
45236;SDS011;30973;51.442;3.580;2023-07-13T10:39:09;8.73;;;2.55;;
45236;SDS011;30973;51.442;3.580;2023-07-13T10:41:40;6.78;;;2.25;;
45236;SDS011;30973;51.442;3.580;2023-07-13T10:44:12;7.88;;;2.28;;
45236;SDS011;30973;51.442;3.580;2023-07-13T10:46:41;8.48;;;3.00;;
45236;SDS011;30973;51.442;3.580;2023-07-13T10:49:09;8.75;;;2.20;;
45236;SDS011;30973;51.442;3.580;2023-07-13T10:51:38;6.75;;;2.20;;
45236;SDS011;30973;51.442;3.580;2023-07-13T10:56:45;5.63;;;1.85;;
45236;SDS011;30973;51.442;3.580;2023-07-13T10:59:17;5.55;;;1.77;;
45236;SDS011;30973;51.442;3.580;2023-07-13T11:04:18;5.72;;;1.85;;
45236;SDS011;30973;51.442;3.580;2023-07-13T11:06:47;5.53;;;1.80;;
45236;SDS011;30973;51.442;3.580;2023-07-13T11:11:44;6.88;;;1.88;;
45236;SDS011;30973;51.442;3.580;2023-07-13T11:16:53;5.82;;;1.85;;
45236;SDS011;30973;51.442;3.580;2023-07-13T11:22:03;7.70;;;1.88;;
45236;SDS011;30973;51.442;3.580;2023-07-13T11:30:06;9.65;;;2.25;;
45236;SDS011;30973;51.442;3.580;2023-07-13T11:32:33;6.45;;;2.00;;
45236;SDS011;30973;51.442;3.580;2023-07-13T11:35:01;8.05;;;2.05;;
45236;SDS011;30973;51.442;3.580;2023-07-13T11:37:28;5.90;;;1.85;;
45236;SDS011;30973;51.442;3.580;2023-07-13T11:39:56;4.30;;;1.92;;
45236;SDS011;30973;51.442;3.580;2023-07-13T11:42:22;4.32;;;1.60;;
45236;SDS011;30973;51.442;3.580;2023-07-13T11:44:50;4.05;;;1.80;;
45236;SDS011;30973;51.442;3.580;2023-07-13T11:47:34;4.55;;;1.70;;
45236;SDS011;30973;51.442;3.580;2023-07-13T11:50:16;3.83;;;1.63;;
45236;SDS011;30973;51.442;3.580;2023-07-13T11:52:44;6.93;;;2.00;;
45236;SDS011;30973;51.442;3.580;2023-07-13T11:55:14;5.93;;;1.50;;
45236;SDS011;30973;51.442;3.580;2023-07-13T11:57:47;5.70;;;1.60;;
45236;SDS011;30973;51.442;3.580;2023-07-13T12:00:15;5.80;;;1.85;;
45236;SDS011;30973;51.442;3.580;2023-07-13T12:02:44;7.97;;;1.63;;
45236;SDS011;30973;51.442;3.580;2023-07-13T12:05:15;4.68;;;1.70;;
45236;SDS011;30973;51.442;3.580;2023-07-13T12:07:44;5.53;;;1.88;;
45236;SDS011;30973;51.442;3.580;2023-07-13T12:10:27;5.57;;;1.60;;
45236;SDS011;30973;51.442;3.580;2023-07-13T12:13:01;6.30;;;1.73;;
45236;SDS011;30973;51.442;3.580;2023-07-13T12:15:34;8.52;;;2.28;;
45236;SDS011;30973;51.442;3.580;2023-07-13T12:18:08;5.93;;;1.80;;
45236;SDS011;30973;51.442;3.580;2023-07-13T12:20:37;6.25;;;2.00;;
45236;SDS011;30973;51.442;3.580;2023-07-13T12:23:05;6.93;;;2.20;;
45236;SDS011;30973;51.442;3.580;2023-07-13T12:25:35;6.57;;;2.00;;
45236;SDS011;30973;51.442;3.580;2023-07-13T12:28:02;6.57;;;1.90;;
45236;SDS011;30973;51.442;3.580;2023-07-13T12:30:47;8.77;;;2.05;;
45236;SDS011;30973;51.442;3.580;2023-07-13T12:33:15;6.43;;;2.13;;
45236;SDS011;30973;51.442;3.580;2023-07-13T12:35:46;7.88;;;2.10;;
45236;SDS011;30973;51.442;3.580;2023-07-13T12:38:14;6.97;;;1.88;;
45236;SDS011;30973;51.442;3.580;2023-07-13T12:40:41;5.63;;;2.45;;
45236;SDS011;30973;51.442;3.580;2023-07-13T12:43:14;6.45;;;2.10;;
45236;SDS011;30973;51.442;3.580;2023-07-13T12:48:27;5.03;;;1.73;;
45236;SDS011;30973;51.442;3.580;2023-07-13T12:51:12;5.97;;;1.95;;
45236;SDS011;30973;51.442;3.580;2023-07-13T12:53:40;6.75;;;2.25;;
45236;SDS011;30973;51.442;3.580;2023-07-13T12:56:08;9.57;;;2.30;;
45236;SDS011;30973;51.442;3.580;2023-07-13T12:58:40;9.43;;;2.78;;
45236;SDS011;30973;51.442;3.580;2023-07-13T13:01:12;10.60;;;2.65;;
45236;SDS011;30973;51.442;3.580;2023-07-13T13:03:44;10.02;;;2.60;;
45236;SDS011;30973;51.442;3.580;2023-07-13T13:08:41;6.10;;;2.20;;
45236;SDS011;30973;51.442;3.580;2023-07-13T13:11:10;8.88;;;2.10;;
45236;SDS011;30973;51.442;3.580;2023-07-13T13:13:36;6.32;;;1.65;;
45236;SDS011;30973;51.442;3.580;2023-07-13T13:18:36;8.20;;;2.42;;
45236;SDS011;30973;51.442;3.580;2023-07-13T13:21:03;5.13;;;1.85;;
45236;SDS011;30973;51.442;3.580;2023-07-13T13:23:29;6.88;;;1.90;;
45236;SDS011;30973;51.442;3.580;2023-07-13T13:25:56;5.25;;;1.90;;
45236;SDS011;30973;51.442;3.580;2023-07-13T13:28:23;6.55;;;1.83;;
45236;SDS011;30973;51.442;3.580;2023-07-13T13:30:50;6.63;;;1.83;;
45236;SDS011;30973;51.442;3.580;2023-07-13T13:33:18;6.13;;;2.05;;
45236;SDS011;30973;51.442;3.580;2023-07-13T13:35:45;5.75;;;2.15;;
45236;SDS011;30973;51.442;3.580;2023-07-13T13:38:12;7.10;;;1.90;;
45236;SDS011;30973;51.442;3.580;2023-07-13T13:40:41;4.40;;;1.73;;
45236;SDS011;30973;51.442;3.580;2023-07-13T13:43:13;5.13;;;1.90;;
45236;SDS011;30973;51.442;3.580;2023-07-13T13:45:40;7.05;;;1.70;;
45236;SDS011;30973;51.442;3.580;2023-07-13T13:48:13;8.30;;;2.47;;
45236;SDS011;30973;51.442;3.580;2023-07-13T13:50:40;5.90;;;2.13;;
45236;SDS011;30973;51.442;3.580;2023-07-13T13:53:09;6.90;;;2.05;;
45236;SDS011;30973;51.442;3.580;2023-07-13T13:55:36;6.40;;;2.05;;
45236;SDS011;30973;51.442;3.580;2023-07-13T13:58:02;5.28;;;2.15;;
45236;SDS011;30973;51.442;3.580;2023-07-13T14:00:30;6.40;;;2.50;;
45236;SDS011;30973;51.442;3.580;2023-07-13T14:02:56;6.97;;;2.30;;
45236;SDS011;30973;51.442;3.580;2023-07-13T14:05:24;6.65;;;2.65;;
45236;SDS011;30973;51.442;3.580;2023-07-13T14:07:54;4.80;;;2.15;;
45236;SDS011;30973;51.442;3.580;2023-07-13T14:10:21;5.88;;;2.00;;
45236;SDS011;30973;51.442;3.580;2023-07-13T14:12:50;4.72;;;1.77;;
45236;SDS011;30973;51.442;3.580;2023-07-13T14:15:20;6.18;;;2.08;;
45236;SDS011;30973;51.442;3.580;2023-07-13T14:17:47;8.70;;;2.47;;
45236;SDS011;30973;51.442;3.580;2023-07-13T14:20:17;4.10;;;2.00;;
45236;SDS011;30973;51.442;3.580;2023-07-13T14:22:43;7.03;;;2.28;;
45236;SDS011;30973;51.442;3.580;2023-07-13T14:25:11;8.35;;;2.20;;
45236;SDS011;30973;51.442;3.580;2023-07-13T14:27:39;6.28;;;2.00;;
45236;SDS011;30973;51.442;3.580;2023-07-13T14:30:13;7.82;;;2.33;;
45236;SDS011;30973;51.442;3.580;2023-07-13T14:32:41;7.88;;;2.00;;
45236;SDS011;30973;51.442;3.580;2023-07-13T14:35:11;7.18;;;2.05;;
45236;SDS011;30973;51.442;3.580;2023-07-13T14:37:41;4.63;;;1.73;;
45236;SDS011;30973;51.442;3.580;2023-07-13T14:40:12;7.75;;;2.38;;
45236;SDS011;30973;51.442;3.580;2023-07-13T14:42:39;6.38;;;2.08;;
45236;SDS011;30973;51.442;3.580;2023-07-13T14:45:12;5.80;;;2.15;;
45236;SDS011;30973;51.442;3.580;2023-07-13T14:47:38;7.20;;;2.13;;
45236;SDS011;30973;51.442;3.580;2023-07-13T14:50:07;11.60;;;2.90;;
45236;SDS011;30973;51.442;3.580;2023-07-13T14:52:38;6.80;;;1.92;;
45236;SDS011;30973;51.442;3.580;2023-07-13T14:55:08;10.40;;;2.65;;
45236;SDS011;30973;51.442;3.580;2023-07-13T14:57:36;7.88;;;2.83;;
45236;SDS011;30973;51.442;3.580;2023-07-13T15:00:03;12.50;;;3.40;;
45236;SDS011;30973;51.442;3.580;2023-07-13T15:02:31;10.25;;;2.90;;
45236;SDS011;30973;51.442;3.580;2023-07-13T15:04:58;10.95;;;3.15;;
45236;SDS011;30973;51.442;3.580;2023-07-13T15:07:25;6.88;;;2.38;;
45236;SDS011;30973;51.442;3.580;2023-07-13T15:09:52;9.90;;;2.40;;
45236;SDS011;30973;51.442;3.580;2023-07-13T15:12:19;9.82;;;2.45;;
45236;SDS011;30973;51.442;3.580;2023-07-13T15:14:46;10.52;;;2.08;;
45236;SDS011;30973;51.442;3.580;2023-07-13T15:17:33;7.93;;;2.10;;
45236;SDS011;30973;51.442;3.580;2023-07-13T15:20:11;9.13;;;1.90;;
45236;SDS011;30973;51.442;3.580;2023-07-13T15:22:40;7.40;;;2.38;;
45236;SDS011;30973;51.442;3.580;2023-07-13T15:25:23;6.28;;;1.60;;
45236;SDS011;30973;51.442;3.580;2023-07-13T15:27:51;6.22;;;1.85;;